Flight Track Log - Related Links

Times and Time Zones

All times are in EDT time to prevent confusion due to time zone crossing. See the N508QS flight status page for this flight to view local times or setup timezone preferences in your user account.

Time Position Orientation Groundspeed Altitude Reporting Facility
EDT Latitude Longitude Course Direction KTS MPH feet Rate Location/Type
Mon 11:20:20 PM 34.4269 -119.8744 273° West 160 184 1,500  Level Los Angeles Center
Mon 11:20:43 PM 34.4278 -119.8969 273° West 180 207 2,400 2,917 Climbing Los Angeles Center
Mon 11:21:32 PM 34.4281 -119.9678 270° West 255 293 5,000 2,634 Climbing Los Angeles Center
Mon 11:22:46 PM 34.4292 -120.0806 271° West 290 334 7,800 2,647 Climbing Los Angeles Center
Mon 11:23:48 PM 34.4453 -120.1697 282° West 304 350 11,000 2,732 Climbing Los Angeles Center
Mon 11:24:49 PM 34.5253 -120.2853 310° West 379 436 13,400 2,146 Climbing Los Angeles Center
Mon 11:25:51 PM 34.6014 -120.3703 317° Northwest 391 450 15,400 2,390 Climbing Los Angeles Center
Mon 11:26:52 PM 34.6956 -120.4447 327° Northwest 394 453 18,300 2,976 Climbing Los Angeles Center
Mon 11:27:54 PM 34.7911 -120.5222 326° Northwest 409 471 21,500 1,790 Climbing Los Angeles Center
Mon 11:28:56 PM 34.8844 -120.5942 328° Northwest 431 496 22,000 244 Climbing Los Angeles Center
Mon 11:29:57 PM 35.0064 -120.6908 327° Northwest 437 503 22,000  Level Los Angeles Center
Mon 11:30:59 PM 35.1075 -120.7711 327° Northwest 436 502 22,000  Level Los Angeles Center
Mon 11:32:01 PM 35.2092 -120.8531 327° Northwest 437 503 22,000  Level Los Angeles Center
Mon 11:33:02 PM 35.3117 -120.9347 327° Northwest 440 506 22,000  Level Los Angeles Center
Mon 11:34:04 PM 35.4142 -121.0167 327° Northwest 441 507 22,000  Level Los Angeles Center
Mon 11:35:06 PM 35.5178 -121.1000 327° Northwest 444 511 22,000 629 Level Los Angeles Center
Mon 11:35:49 PM 35.5956 -121.1642 326° Northwest 441 507 23,100 1,154 Climbing Oakland Center
Mon 11:36:50 PM 35.6992 -121.2517 326° Northwest 448 516 24,000 443 Climbing Oakland Center
Mon 11:37:51 PM 35.8092 -121.3381 328° Northwest 462 532 24,000  Level Oakland Center
Mon 11:38:52 PM 35.9136 -121.4272 325° Northwest 458 527 24,000  Level Oakland Center
Mon 11:39:53 PM 36.0431 -121.5306 327° Northwest 460 529 24,000  Level Oakland Center
Mon 11:40:54 PM 36.1475 -121.6197 325° Northwest 459 528 24,000  Level Oakland Center
Mon 11:41:55 PM 36.2558 -121.7094 326° Northwest 463 533 24,000 -541 Level Oakland Center
Mon 11:42:56 PM 36.3608 -121.8000 325° Northwest 459 528 22,900 -1,426 Descending Oakland Center
Mon 11:43:57 PM 36.4631 -121.8847 326° Northwest 449 517 21,100 -1,869 Descending Oakland Center
Mon 11:44:58 PM 36.5800 -121.9189 347° North 431 496 19,100 -1,869 Descending Oakland Center
Mon 11:45:59 PM 36.6953 -121.9533 347° North 424 488 17,300 -1,923 Descending Oakland Center
Mon 11:46:16 PM 36.7333 -121.9667 344° North 421 484 16,600 -2,026 Descending Northern Cal TRACON
Mon 11:47:16 PM 36.8500 -122.0000 347° North 416 479 14,700 -1,518 Descending Northern Cal TRACON
Mon 11:49:02 PM 37.0089 -122.0364 350° North 344 396 12,400 -1,289 Descending Oakland Center
Mon 11:49:17 PM 37.0500 -122.0500 345° North 316 364 12,100 -348 Descending Northern Cal TRACON
Mon 11:50:11 PM 37.1167 -122.0667 349° North 305 351 12,000 -561 Descending Northern Cal TRACON
Mon 11:51:04 PM 37.1853 -122.0800 351° North 264 304 11,100 -1,053 Descending Oakland Center
Mon 11:52:05 PM 37.2586 -122.0986 349° North 264 304 10,000 -1,475 Descending Oakland Center
Mon 11:53:06 PM 37.3272 -122.1181 347° North 254 292 8,100 -1,820 Descending Oakland Center
Mon 11:54:07 PM 37.3933 -122.1350 348° North 245 282 6,300 -1,426 Descending Oakland Center
Mon 11:55:08 PM 37.4556 -122.1506 349° North 231 266 5,200 -836 Descending Oakland Center
Mon 11:56:09 PM 37.5133 -122.1767 340° North 224 258 4,600 -1,033 Descending Oakland Center
Mon 11:57:10 PM 37.5483 -122.2247 313° West 198 228 3,100 -1,623 Descending Oakland Center
Mon 11:58:11 PM 37.5739 -122.2719 304° West 177 204 1,300 -1,180 Descending Oakland Center
Mon 11:59:12 PM 37.5950 -122.3211 298° West 166 191 700 -541 Descending Oakland Center
Tue 12:00:13 AM 37.6150 -122.3703 297° West 158 182 200 -492 Descending Oakland Center
Tue 12:02:00 AM 37.6167 -122.3667 322° Northwest  Level FlightAware Approximate

Login

Don't have an account? Register now (free) for customized features, flight alerts, and more!